Wawa Airport
CYXZ : now visible

Airfield :











YOU CAN JOIN US ON...

 
LOGIN :

Register | Disclaimer

   EN    FR    IT 

 









Legend :    VFR   Marginal VFR   IFR   Intensive IFR   Very Intensive IFR
Visi :
Ceiling :
>= 8 km
>= 3000ft
5 to 8 km
1000 to 3000 ft
1500m to 5 km
500 to 1000 ft
800 to 1500m
200 to 500 ft
< 800m
< 200 ft
Symbols :   Thunderstorms  Fog  Heavy snow  Heavy precipitations  Wind > 20 kt






- Airport Elevation : 942 ft
- IATA code : YXZ


CYXZ - Wawa

CURRENT METAR :
  • 301806Z 25006KT 210V290 1/2SM FG VV001 12/12 A2975 RMK FG8 SLP081 DENSITY ALT 1100FT

EXPIRED METARs :
  • 301744Z 24009G19KT 220V280 2 1/2SM BR OVC004 14/13 A2974 RMK ST8 SLP080 DENSITY ALT 1200FT
  • 301716Z 27008G15KT 220V310 15SM SCT012 OVC028 15/14 A2973 RMK CF3SC5 SLP076 DENSITY ALT 1400FT
  • 301700Z 26007G21KT 190V300 12SM -SHRA SCT015 BKN021TCU OVC029 18/16 A2973 RMK SC4TCU2SC2 SLP074 DENSITY ALT 1800FT
  • 301643Z 20016G22KT 15SM -SHRA SCT015 BKN022TCU OVC036 19/17 A2973 RMK SC4TCU3SC1 SLP073 DENSITY ALT 1800FT
  • 301636Z 20011G22KT 170V240 15SM BKN024 OVC037 18/17 A2973 RMK SC5SC3 SLP074 DENSITY ALT 1800FT
  • 301600Z 20014G21KT 12SM -SHRA SCT012 BKN022 OVC036TCU 17/17 A2975 RMK CF4SC3TCU1 SLP080 DENSITY ALT 1700FT

TAF AMD TAF CYXZ
Valid from the 30 at 17:00 until the 01 at 00:00 UTC


301748Z 3017/3024 27012G22KT P6SM SCT010 OVC030
TEMPO 3017/3018 2SM -SHRA BR OVC004
FM301800 21012G22KT 1SM -DZ BR OVC004
TEMPO 3018/3024 5SM -RA BR OVC008 RMK NXT FCST BY 302000Z
CZYZ FIR / North America



MET'MAP, your aeronautical weather chart ! - Copyright ORBIFLY December 2007 - Disclaimer

ORBIFLY MET'MAP TEAM :

Programming & Development : Alexandra Zaïnal
Original concept : Baudouin d'Aumeries
Technical & hardware support : Manuel Goepfert
Assistance : Marc-Olivier Méhu




SOURCES & CREDITS :

   NOAA       Earth
Advisory